Time;durP1;ratioP1;P1;durP2;ratioP2;P2;SDS_P1;SDS_P2;PMS_P1;PMS_P2;Temp;Humidity;BMP_temperature;BMP_pressure;BME280_temperature;BME280_humidity;BME280_pressure;Samples;Min_cycle;Max_cycle;Signal;HPM_P1;HPM_P2
2022/03/26 00:01:11;;;;;;;29.33;20.17;;;8.90;80.50;;;;;;5033963;28;20230;-53
2022/03/26 00:03:38;;;;;;;33.75;19.85;;;8.90;80.80;;;;;;5034250;28;20216;-53
2022/03/26 00:06:07;;;;;;;36.65;19.58;;;8.90;81.10;;;;;;5033731;28;20207;-53
2022/03/26 00:08:34;;;;;;;28.05;17.48;;;8.90;81.20;;;;;;5033035;28;20738;-53
2022/03/26 00:11:01;;;;;;;28.13;20.02;;;8.90;81.20;;;;;;5033441;28;20580;-53
2022/03/26 00:13:28;;;;;;;30.85;18.98;;;9.00;81.50;;;;;;5033941;28;20590;-53
2022/03/26 00:15:55;;;;;;;25.40;17.50;;;9.00;82.10;;;;;;5032803;28;20548;-53
2022/03/26 00:18:24;;;;;;;33.45;19.30;;;9.00;81.80;;;;;;5032734;28;20707;-53
2022/03/26 00:20:51;;;;;;;25.67;16.95;;;8.90;82.20;;;;;;5032777;28;20211;-53
2022/03/26 00:23:18;;;;;;;26.23;18.25;;;8.90;82.40;;;;;;5033216;28;20208;-53
2022/03/26 00:25:45;;;;;;;24.85;16.52;;;8.80;83.00;;;;;;5035923;28;20206;-51
2022/03/26 00:28:12;;;;;;;26.33;18.90;;;8.80;83.40;;;;;;5036775;28;20231;-52
2022/03/26 00:30:39;;;;;;;24.05;17.30;;;8.70;83.80;;;;;;5036810;28;20211;-54
2022/03/26 00:33:07;;;;;;;29.25;18.02;;;8.70;84.50;;;;;;5037902;28;20218;-51
2022/03/26 00:35:36;;;;;;;27.85;17.85;;;8.60;84.90;;;;;;5036598;28;20258;-51
2022/03/26 00:38:04;;;;;;;28.75;18.67;;;8.60;85.40;;;;;;5036633;28;20729;-52
2022/03/26 00:40:31;;;;;;;23.30;16.00;;;8.50;85.80;;;;;;5036781;28;20213;-51
2022/03/26 00:42:58;;;;;;;25.88;17.17;;;8.50;86.30;;;;;;5036912;28;20203;-52
2022/03/26 00:45:26;;;;;;;27.15;16.25;;;8.40;86.40;;;;;;5036781;28;20290;-51
2022/03/26 00:47:53;;;;;;;25.25;17.17;;;8.40;86.70;;;;;;5036420;28;20224;-51
2022/03/26 00:50:20;;;;;;;25.67;16.08;;;8.40;86.90;;;;;;5036734;28;20207;-51
2022/03/26 00:52:49;;;;;;;28.58;16.48;;;8.40;87.00;;;;;;5037234;28;20207;-51
2022/03/26 00:55:16;;;;;;;27.40;16.23;;;8.30;87.40;;;;;;5040556;28;20233;-56
2022/03/26 00:57:43;;;;;;;31.27;17.35;;;8.30;87.50;;;;;;5038845;28;20230;-59
2022/03/26 01:00:12;;;;;;;25.65;16.83;;;8.30;88.00;;;;;;5036267;28;20214;-57
2022/03/26 01:02:39;;;;;;;27.63;16.42;;;8.30;88.50;;;;;;5036650;28;20561;-57
2022/03/26 01:05:07;;;;;;;26.42;16.42;;;8.30;88.50;;;;;;5036116;28;20203;-56
2022/03/26 01:07:34;;;;;;;27.77;17.38;;;8.30;88.20;;;;;;5036397;28;20227;-56
2022/03/26 01:10:02;;;;;;;26.58;16.92;;;8.20;88.10;;;;;;5035988;28;20199;-57
2022/03/26 01:12:30;;;;;;;33.55;16.60;;;8.20;88.50;;;;;;5036176;28;20206;-56
2022/03/26 01:14:57;;;;;;;28.17;17.08;;;8.20;88.70;;;;;;5036174;28;20253;-56
2022/03/26 01:17:24;;;;;;;24.40;16.50;;;8.10;88.80;;;;;;5036051;28;20226;-56
2022/03/26 01:19:51;;;;;;;28.98;18.33;;;8.10;89.00;;;;;;5035810;28;20210;-56
2022/03/26 01:22:18;;;;;;;28.58;17.90;;;8.00;89.40;;;;;;5036115;28;20235;-56
2022/03/26 01:24:45;;;;;;;23.25;16.20;;;8.00;89.60;;;;;;5035818;28;20206;-56
2022/03/26 01:27:14;;;;;;;24.73;16.83;;;7.90;90.00;;;;;;5035990;28;20612;-57
2022/03/26 01:29:41;;;;;;;28.33;15.98;;;7.90;90.20;;;;;;5036570;28;20204;-57
2022/03/26 01:32:10;;;;;;;25.40;17.13;;;7.80;90.30;;;;;;5036830;28;20203;-56
2022/03/26 01:34:37;;;;;;;37.33;18.25;;;7.80;90.60;;;;;;5036995;28;20227;-56
2022/03/26 01:37:05;;;;;;;28.40;17.92;;;7.70;90.80;;;;;;5035787;28;20605;-57
2022/03/26 01:39:32;;;;;;;29.52;18.20;;;7.70;90.90;;;;;;5036417;28;20233;-57
2022/03/26 01:42:03;;;;;;;23.17;17.08;;;7.70;91.10;;;;;;5036103;28;20206;-57
2022/03/26 01:44:31;;;;;;;33.33;18.05;;;7.70;91.20;;;;;;5035890;28;20199;-57
2022/03/26 01:46:59;;;;;;;26.10;17.52;;;7.60;91.30;;;;;;5036273;28;20566;-56
2022/03/26 01:49:27;;;;;;;29.08;18.02;;;7.60;91.40;;;;;;5035691;28;20676;-58
2022/03/26 01:51:54;;;;;;;34.50;18.48;;;7.60;91.40;;;;;;5036106;28;20549;-56
2022/03/26 01:54:23;;;;;;;26.95;17.23;;;7.50;91.60;;;;;;5035632;28;20230;-56
2022/03/26 01:56:50;;;;;;;27.63;18.00;;;7.50;91.70;;;;;;5035984;28;20231;-56
2022/03/26 01:59:19;;;;;;;34.85;16.95;;;7.50;91.80;;;;;;5036814;28;20207;-57
2022/03/26 02:01:47;;;;;;;31.02;19.02;;;7.50;91.90;;;;;;5036153;28;20210;-57
2022/03/26 02:04:14;;;;;;;29.45;18.27;;;7.50;92.00;;;;;;5036166;28;20249;-57
2022/03/26 02:06:42;;;;;;;27.70;17.88;;;7.50;92.00;;;;;;5035931;28;20202;-57
2022/03/26 02:09:12;;;;;;;33.13;19.08;;;7.50;92.00;;;;;;5036247;28;20203;-56
2022/03/26 02:11:40;;;;;;;32.25;19.58;;;7.50;92.00;;;;;;5035985;28;20587;-56
2022/03/26 02:14:09;;;;;;;24.75;18.48;;;7.50;92.10;;;;;;5035377;28;20203;-56
2022/03/26 02:16:38;;;;;;;33.70;19.85;;;7.40;92.10;;;;;;5035308;28;20644;-58
2022/03/26 02:19:08;;;;;;;34.25;20.48;;;7.40;92.10;;;;;;5035468;28;20260;-56
2022/03/26 02:21:38;;;;;;;33.88;21.77;;;7.40;92.20;;;;;;5035341;28;20686;-56
2022/03/26 02:24:06;;;;;;;33.42;21.52;;;7.40;92.30;;;;;;5035150;28;20768;-57
2022/03/26 02:26:34;;;;;;;37.55;22.35;;;7.30;92.50;;;;;;5034787;28;20539;-57
2022/03/26 02:29:07;;;;;;;35.53;23.10;;;7.30;92.60;;;;;;5035278;28;20206;-58
2022/03/26 02:31:35;;;;;;;33.10;20.50;;;7.30;92.50;;;;;;5035273;28;20219;-57
2022/03/26 02:34:02;;;;;;;35.00;22.15;;;7.20;92.70;;;;;;5035145;28;20210;-56
2022/03/26 02:36:29;;;;;;;39.40;24.48;;;7.20;92.90;;;;;;5035392;28;20244;-57
2022/03/26 02:38:57;;;;;;;44.97;23.95;;;7.20;92.90;;;;;;5035260;28;20206;-56
2022/03/26 02:41:24;;;;;;;39.03;23.70;;;7.10;93.00;;;;;;5034455;28;20671;-57
2022/03/26 02:43:52;;;;;;;42.17;25.40;;;7.10;93.10;;;;;;5034338;28;20579;-58
2022/03/26 02:46:19;;;;;;;43.95;26.55;;;7.00;93.30;;;;;;5035165;28;20206;-57
2022/03/26 02:48:46;;;;;;;40.58;25.45;;;7.00;93.50;;;;;;5033075;28;20226;-57
2022/03/26 02:51:13;;;;;;;45.22;25.85;;;7.00;93.70;;;;;;5034459;28;20198;-57
2022/03/26 02:53:40;;;;;;;45.08;26.95;;;6.90;93.90;;;;;;5034429;28;20207;-57
2022/03/26 02:56:09;;;;;;;44.55;28.17;;;6.90;94.00;;;;;;5033925;28;20225;-57
2022/03/26 02:58:36;;;;;;;50.78;29.77;;;6.90;94.10;;;;;;5034399;28;20647;-57
2022/03/26 03:01:03;;;;;;;56.90;30.13;;;6.80;94.40;;;;;;5034233;28;20582;-57
2022/03/26 03:03:30;;;;;;;58.47;30.48;;;6.80;94.40;;;;;;5033878;28;20199;-57
2022/03/26 03:05:58;;;;;;;52.55;30.73;;;6.80;94.80;;;;;;5033850;28;20199;-57
2022/03/26 03:08:25;;;;;;;49.05;28.83;;;6.80;94.80;;;;;;5033824;28;20226;-57
2022/03/26 03:10:53;;;;;;;49.53;30.63;;;6.70;94.80;;;;;;5033834;28;20209;-57
2022/03/26 03:13:22;;;;;;;54.13;30.27;;;6.70;94.80;;;;;;5034012;28;20207;-57
2022/03/26 03:15:50;;;;;;;52.67;30.70;;;6.70;95.30;;;;;;5033536;28;20691;-57
2022/03/26 03:18:18;;;;;;;45.50;27.60;;;6.70;95.10;;;;;;5033600;28;20219;-57
2022/03/26 03:20:45;;;;;;;39.85;27.13;;;6.70;95.10;;;;;;5033621;28;20205;-57
2022/03/26 03:23:13;;;;;;;56.08;30.60;;;6.70;95.30;;;;;;5033833;28;20202;-57
2022/03/26 03:25:40;;;;;;;50.17;28.52;;;6.60;95.40;;;;;;5033488;28;20195;-57
2022/03/26 03:28:07;;;;;;;51.50;29.83;;;6.60;95.50;;;;;;5033270;28;20241;-57
2022/03/26 03:30:36;;;;;;;52.58;30.27;;;6.70;95.50;;;;;;5033736;28;20205;-57
2022/03/26 03:33:03;;;;;;;44.45;27.10;;;6.70;95.60;;;;;;5033540;28;20581;-57
2022/03/26 03:35:30;;;;;;;52.15;29.27;;;6.70;95.50;;;;;;5033540;28;20236;-57
2022/03/26 03:37:57;;;;;;;50.78;28.02;;;6.70;95.50;;;;;;5033214;28;20226;-57
2022/03/26 03:40:24;;;;;;;47.25;26.90;;;6.70;95.50;;;;;;5033544;28;20199;-57
2022/03/26 03:42:53;;;;;;;44.80;26.52;;;6.60;95.40;;;;;;5033722;28;20202;-57
2022/03/26 03:45:20;;;;;;;46.08;27.08;;;6.60;95.40;;;;;;5033685;28;20199;-57
2022/03/26 03:47:48;;;;;;;39.95;24.65;;;6.50;95.50;;;;;;5033588;28;20716;-57
2022/03/26 03:50:16;;;;;;;47.67;27.45;;;6.50;95.60;;;;;;5033521;28;20206;-57
2022/03/26 03:52:43;;;;;;;43.55;26.55;;;6.50;95.70;;;;;;5034112;28;20252;-57
2022/03/26 03:55:11;;;;;;;42.05;25.45;;;6.50;95.80;;;;;;5033955;28;20225;-57
2022/03/26 03:57:42;;;;;;;43.08;25.15;;;6.40;95.90;;;;;;5033835;28;20234;-57
2022/03/26 04:00:10;;;;;;;42.05;26.48;;;6.40;96.00;;;;;;5033736;28;20229;-57
2022/03/26 04:02:37;;;;;;;37.25;23.75;;;6.40;96.00;;;;;;5033372;28;20217;-57
2022/03/26 04:05:09;;;;;;;41.03;24.40;;;6.40;96.20;;;;;;5033539;28;20213;-57
2022/03/26 04:09:30;;;;;;;45.67;23.52;;;6.30;95.80;;;;;;5091585;27;20541;-57
2022/03/26 04:11:58;;;;;;;40.70;25.42;;;6.30;96.10;;;;;;5091126;28;20571;-57
2022/03/26 04:14:25;;;;;;;46.50;26.02;;;6.30;96.00;;;;;;5090908;28;20208;-57
2022/03/26 04:16:52;;;;;;;39.13;24.17;;;6.30;96.00;;;;;;5090773;28;20220;-58
2022/03/26 04:21:57;;;;;;;40.35;25.45;;;6.30;96.20;;;;;;5069741;28;20282;-55
2022/03/26 04:24:24;;;;;;;35.90;23.58;;;6.30;96.10;;;;;;5070725;28;20279;-56
2022/03/26 04:26:53;;;;;;;37.33;23.60;;;6.30;96.20;;;;;;5070511;28;20217;-56
2022/03/26 04:29:21;;;;;;;43.22;25.63;;;6.30;96.20;;;;;;5070499;28;20316;-55
2022/03/26 04:31:48;;;;;;;44.17;25.73;;;6.30;96.10;;;;;;5050656;28;20252;-57
2022/03/26 04:34:15;;;;;;;42.65;26.10;;;6.40;96.00;;;;;;5050824;28;20205;-57
2022/03/26 04:36:42;;;;;;;56.33;29.95;;;6.40;96.10;;;;;;5052197;28;20217;-55
2022/03/26 04:39:09;;;;;;;46.53;25.67;;;6.40;96.00;;;;;;5052264;28;20201;-56
2022/03/26 04:41:36;;;;;;;41.05;26.48;;;6.40;96.10;;;;;;5053911;28;20221;-57
2022/03/26 04:44:05;;;;;;;41.22;26.70;;;6.40;96.10;;;;;;5057616;28;20203;-55
2022/03/26 04:46:32;;;;;;;44.53;25.02;;;6.40;96.00;;;;;;5062750;28;20205;-55
2022/03/26 04:49:00;;;;;;;45.85;26.55;;;6.40;96.00;;;;;;5059889;28;20228;-55
2022/03/26 04:51:27;;;;;;;41.70;25.60;;;6.40;95.90;;;;;;5059665;28;20227;-56
2022/03/26 04:53:54;;;;;;;42.92;26.35;;;6.40;96.00;;;;;;5060694;28;20294;-56
2022/03/26 04:56:21;;;;;;;46.08;28.77;;;6.40;95.90;;;;;;5060724;28;20206;-57
2022/03/26 04:58:49;;;;;;;41.58;26.40;;;6.40;96.00;;;;;;5060355;28;20682;-56
2022/03/26 05:01:18;;;;;;;45.13;26.73;;;6.40;96.00;;;;;;5057749;28;20236;-55
2022/03/26 05:03:45;;;;;;;42.97;27.13;;;6.40;96.00;;;;;;5056940;28;20280;-55
2022/03/26 05:06:12;;;;;;;48.90;28.50;;;6.40;96.00;;;;;;5059622;28;20230;-56
2022/03/26 05:08:39;;;;;;;45.65;28.58;;;6.40;96.00;;;;;;5062048;28;20306;-56
2022/03/26 05:11:07;;;;;;;41.20;27.33;;;6.40;96.10;;;;;;5063358;28;20231;-55
2022/03/26 05:13:34;;;;;;;51.10;29.00;;;6.30;96.10;;;;;;5065937;28;20202;-56
2022/03/26 05:16:02;;;;;;;53.22;31.33;;;6.30;96.10;;;;;;5066807;28;20202;-56
2022/03/26 05:18:30;;;;;;;46.85;28.88;;;6.30;96.30;;;;;;5068112;28;20206;-56
2022/03/26 05:20:57;;;;;;;50.85;29.75;;;6.30;96.40;;;;;;5051691;28;20230;-56
2022/03/26 05:23:25;;;;;;;49.17;31.10;;;6.30;96.40;;;;;;5053431;28;20206;-56
2022/03/26 05:25:52;;;;;;;46.70;30.10;;;6.30;96.40;;;;;;5053932;28;20207;-56
2022/03/26 05:28:19;;;;;;;51.15;30.38;;;6.30;96.50;;;;;;5055102;28;20226;-56
2022/03/26 05:30:49;;;;;;;49.00;30.45;;;6.30;96.60;;;;;;5050786;28;20601;-56
2022/03/26 05:33:16;;;;;;;49.25;29.23;;;6.30;96.70;;;;;;5048720;28;20277;-57
2022/03/26 05:35:45;;;;;;;51.65;30.23;;;6.30;96.70;;;;;;5050777;28;20209;-56
2022/03/26 05:38:12;;;;;;;49.92;28.73;;;6.30;96.60;;;;;;5049138;28;20207;-56
2022/03/26 05:40:39;;;;;;;46.38;28.75;;;6.30;96.70;;;;;;5045145;28;20226;-55
2022/03/26 05:43:07;;;;;;;41.70;26.80;;;6.30;96.70;;;;;;5043887;28;20617;-56
2022/03/26 05:45:34;;;;;;;47.22;29.60;;;6.30;96.70;;;;;;5043074;28;20233;-56
2022/03/26 05:48:05;;;;;;;46.63;29.33;;;6.30;96.60;;;;;;5046994;28;20222;-55
2022/03/26 05:50:34;;;;;;;47.15;28.92;;;6.30;96.70;;;;;;5043707;28;20718;-56
2022/03/26 05:53:04;;;;;;;44.72;28.23;;;6.30;96.70;;;;;;5046753;28;20553;-55
2022/03/26 05:55:32;;;;;;;61.85;28.67;;;6.30;96.70;;;;;;5044045;28;20214;-56
2022/03/26 05:57:59;;;;;;;46.22;26.73;;;6.30;96.70;;;;;;5045439;28;20198;-56
2022/03/26 06:00:26;;;;;;;46.40;28.30;;;6.30;96.70;;;;;;5045447;28;20223;-54
2022/03/26 06:02:53;;;;;;;43.15;26.75;;;6.30;96.60;;;;;;5043445;28;20213;-55
2022/03/26 06:05:21;;;;;;;47.05;28.20;;;6.40;96.60;;;;;;5043952;28;20207;-56
2022/03/26 06:07:48;;;;;;;48.97;29.50;;;6.40;96.60;;;;;;5039328;28;20633;-55
2022/03/26 06:10:17;;;;;;;41.78;29.00;;;6.40;96.60;;;;;;5038956;28;20226;-55
2022/03/26 06:12:44;;;;;;;48.28;29.38;;;6.40;96.60;;;;;;5036408;28;20202;-55
2022/03/26 06:15:12;;;;;;;44.15;27.55;;;6.50;96.60;;;;;;5035639;28;20550;-56
2022/03/26 06:17:39;;;;;;;45.60;28.90;;;6.50;96.50;;;;;;5036430;28;20202;-56
2022/03/26 06:20:07;;;;;;;57.70;33.28;;;6.60;96.40;;;;;;5035589;28;20235;-56
2022/03/26 06:22:34;;;;;;;44.47;29.08;;;6.60;96.30;;;;;;5035621;28;20200;-55
2022/03/26 06:25:01;;;;;;;58.13;30.85;;;6.70;96.30;;;;;;5035967;28;20206;-56
2022/03/26 06:27:29;;;;;;;52.55;29.98;;;6.70;96.20;;;;;;5035647;28;20207;-56
2022/03/26 06:29:56;;;;;;;51.95;31.55;;;6.80;96.00;;;;;;5035465;28;20690;-56
2022/03/26 06:32:23;;;;;;;52.45;32.42;;;6.90;95.90;;;;;;5033894;28;20209;-55
2022/03/26 06:34:50;;;;;;;56.78;32.15;;;7.00;95.70;;;;;;5035153;28;20203;-57
2022/03/26 06:37:17;;;;;;;49.10;31.65;;;7.10;95.80;;;;;;5035009;28;20199;-55
2022/03/26 06:39:45;;;;;;;52.53;32.83;;;7.20;95.30;;;;;;5034275;28;20225;-54
2022/03/26 06:42:12;;;;;;;54.88;32.70;;;7.20;95.10;;;;;;5034824;28;20202;-55
2022/03/26 06:44:40;;;;;;;56.33;31.13;;;7.30;94.80;;;;;;5034753;28;20203;-57
2022/03/26 06:47:07;;;;;;;57.03;31.25;;;7.40;94.70;;;;;;5035095;28;20234;-56
2022/03/26 06:49:34;;;;;;;56.05;32.63;;;7.40;94.50;;;;;;5034816;28;20722;-56
2022/03/26 06:52:01;;;;;;;59.60;33.10;;;7.60;94.30;;;;;;5034688;28;20215;-56
2022/03/26 06:54:29;;;;;;;59.95;33.55;;;7.60;94.00;;;;;;5034840;28;20210;-56
2022/03/26 06:56:56;;;;;;;56.35;33.08;;;7.70;93.80;;;;;;5036093;28;20211;-55
2022/03/26 06:59:23;;;;;;;59.78;33.45;;;7.80;93.50;;;;;;5036550;28;20298;-55
2022/03/26 07:01:52;;;;;;;56.80;33.10;;;7.90;93.20;;;;;;5036893;28;20634;-56
2022/03/26 07:04:19;;;;;;;56.67;31.20;;;8.00;93.00;;;;;;5037252;28;20212;-56
2022/03/26 07:06:46;;;;;;;58.47;34.03;;;8.10;92.50;;;;;;5037134;28;20205;-57
2022/03/26 07:09:13;;;;;;;53.85;33.92;;;8.20;92.10;;;;;;5035165;28;20700;-55
2022/03/26 07:11:40;;;;;;;54.75;32.83;;;8.30;91.90;;;;;;5034622;28;20226;-56
2022/03/26 07:14:08;;;;;;;55.50;31.65;;;8.30;91.60;;;;;;5034680;28;20702;-57
2022/03/26 07:16:35;;;;;;;51.17;31.48;;;8.40;91.40;;;;;;5035460;28;20207;-57
2022/03/26 07:19:03;;;;;;;57.78;31.38;;;8.40;91.30;;;;;;5036843;28;20261;-57
2022/03/26 07:21:32;;;;;;;53.78;31.38;;;8.50;91.10;;;;;;5038665;28;20231;-56
2022/03/26 07:23:59;;;;;;;50.55;30.48;;;8.60;90.80;;;;;;5034644;28;20258;-56
2022/03/26 07:26:26;;;;;;;50.25;31.90;;;8.70;90.50;;;;;;5039222;28;20230;-55
2022/03/26 07:28:55;;;;;;;42.90;30.95;;;8.80;90.40;;;;;;5040384;28;20263;-58
2022/03/26 07:31:22;;;;;;;53.55;28.83;;;8.90;90.20;;;;;;5040267;28;20266;-56
2022/03/26 07:33:49;;;;;;;54.47;31.10;;;9.00;89.80;;;;;;5040607;28;20203;-55
2022/03/26 07:36:18;;;;;;;49.53;30.02;;;9.10;89.30;;;;;;5041240;28;20216;-54
2022/03/26 07:38:45;;;;;;;48.53;29.83;;;9.20;88.60;;;;;;5043512;28;20205;-56
2022/03/26 07:41:12;;;;;;;47.95;30.45;;;9.30;87.70;;;;;;5041998;28;20228;-56
2022/03/26 07:43:40;;;;;;;48.40;29.20;;;9.40;86.70;;;;;;5042008;28;20603;-56
2022/03/26 07:46:07;;;;;;;48.40;29.20;;;9.50;85.90;;;;;;5041721;28;20212;-55
2022/03/26 07:48:34;;;;;;;52.03;31.00;;;9.50;85.20;;;;;;5043459;28;20483;-55
2022/03/26 07:51:01;;;;;;;49.65;29.45;;;9.60;84.60;;;;;;5042904;28;20463;-54
2022/03/26 07:53:30;;;;;;;52.03;30.83;;;9.70;84.00;;;;;;5037366;28;20215;-55
2022/03/26 07:55:57;;;;;;;54.90;29.53;;;9.80;83.20;;;;;;5036544;28;20454;-56
2022/03/26 07:58:24;;;;;;;51.13;30.53;;;9.90;82.50;;;;;;5037114;28;20447;-55
2022/03/26 08:00:51;;;;;;;50.87;30.00;;;10.00;80.70;;;;;;5037493;28;20474;-56
2022/03/26 08:03:18;;;;;;;46.50;30.70;;;10.00;80.00;;;;;;5037844;28;20454;-57
2022/03/26 08:05:46;;;;;;;48.87;29.10;;;10.10;79.60;;;;;;5038436;28;20811;-56
2022/03/26 08:08:13;;;;;;;44.10;27.50;;;10.20;79.20;;;;;;5039869;28;20547;-57
2022/03/26 08:10:41;;;;;;;46.90;28.93;;;10.30;78.40;;;;;;5039528;28;20502;-57
2022/03/26 08:13:08;;;;;;;47.63;27.67;;;10.40;77.70;;;;;;5044540;28;20503;-56
2022/03/26 08:15:35;;;;;;;44.60;29.03;;;10.60;77.30;;;;;;5045973;28;20451;-56
2022/03/26 08:18:03;;;;;;;47.77;29.23;;;10.70;77.00;;;;;;5041494;28;20448;-57
2022/03/26 08:20:31;;;;;;;43.70;26.83;;;10.80;76.50;;;;;;5038197;28;20500;-56
2022/03/26 08:22:58;;;;;;;41.23;26.23;;;10.90;76.10;;;;;;5038744;28;20447;-56
2022/03/26 08:28:12;;;;;;;40.10;25.63;;;11.10;75.40;;;;;;5042034;28;20403;-56
2022/03/26 08:30:40;;;;;;;45.13;25.30;;;11.20;75.00;;;;;;5038469;28;20558;-56
2022/03/26 08:33:07;;;;;;;39.17;24.27;;;11.30;74.50;;;;;;5037608;28;20505;-56
2022/03/26 08:35:36;;;;;;;40.00;26.43;;;11.40;74.00;;;;;;5038203;28;20522;-56
2022/03/26 08:38:03;;;;;;;38.50;26.13;;;11.40;73.40;;;;;;5041285;28;20446;-56
2022/03/26 08:40:30;;;;;;;39.43;27.47;;;11.50;73.50;;;;;;5043593;28;20472;-57
2022/03/26 08:42:58;;;;;;;39.73;25.43;;;11.50;73.50;;;;;;5042976;28;20800;-56
2022/03/26 08:45:27;;;;;;;41.33;26.43;;;11.60;73.50;;;;;;5041577;28;20460;-57
2022/03/26 08:47:55;;;;;;;40.20;24.27;;;11.70;72.60;;;;;;5038946;28;20451;-56
2022/03/26 08:50:22;;;;;;;38.13;25.07;;;11.70;72.10;;;;;;5037509;28;20485;-55
2022/03/26 08:52:49;;;;;;;35.57;25.67;;;11.80;71.60;;;;;;5042194;28;20459;-55
2022/03/26 08:55:17;;;;;;;37.17;24.67;;;11.90;71.00;;;;;;5041930;28;20463;-56
2022/03/26 08:57:44;;;;;;;37.30;24.87;;;11.90;70.40;;;;;;5042472;28;20452;-56
2022/03/26 09:00:14;;;;;;;34.73;22.30;;;12.00;69.50;;;;;;5042196;28;20462;-55
2022/03/26 09:02:43;;;;;;;37.83;24.20;;;12.10;68.80;;;;;;5046785;28;20454;-56
2022/03/26 09:05:12;;;;;;;37.53;23.43;;;12.20;67.50;;;;;;5047335;28;20453;-57
2022/03/26 09:07:39;;;;;;;35.17;22.60;;;12.20;66.60;;;;;;5046587;28;20451;-57
2022/03/26 09:10:07;;;;;;;36.03;23.33;;;12.30;65.60;;;;;;5047029;28;20480;-57
2022/03/26 09:12:37;;;;;;;37.97;24.67;;;12.30;65.20;;;;;;5046729;28;20474;-56
2022/03/26 09:15:07;;;;;;;31.30;22.07;;;12.40;65.10;;;;;;5041899;28;20453;-55
2022/03/26 09:17:34;;;;;;;37.20;23.87;;;12.60;64.50;;;;;;5039527;28;20453;-56
2022/03/26 09:20:03;;;;;;;37.13;23.60;;;12.60;64.10;;;;;;5038961;28;20471;-55
2022/03/26 09:22:30;;;;;;;40.20;24.70;;;12.70;64.20;;;;;;5039155;28;20464;-57
2022/03/26 09:24:57;;;;;;;36.07;25.47;;;12.80;63.90;;;;;;5037610;28;20504;-55
2022/03/26 09:27:24;;;;;;;35.63;25.20;;;12.80;63.80;;;;;;5037024;28;20445;-56
2022/03/26 09:29:52;;;;;;;33.80;22.57;;;12.90;63.80;;;;;;5036629;28;20497;-56
2022/03/26 09:32:19;;;;;;;37.30;25.50;;;13.00;63.60;;;;;;5037106;28;20545;-55
2022/03/26 09:34:46;;;;;;;35.13;24.13;;;13.10;63.30;;;;;;5037033;28;20458;-56
2022/03/26 09:37:15;;;;;;;36.70;25.50;;;13.20;63.00;;;;;;5037214;28;20454;-57
2022/03/26 09:39:42;;;;;;;40.07;26.40;;;13.30;62.70;;;;;;5041687;28;20573;-54
2022/03/26 09:42:10;;;;;;;35.87;24.97;;;13.40;62.50;;;;;;5046442;28;20453;-56
2022/03/26 09:44:38;;;;;;;34.23;23.00;;;13.40;62.20;;;;;;5054137;28;20528;-55
2022/03/26 09:47:06;;;;;;;32.90;23.20;;;13.60;62.10;;;;;;5055356;28;20459;-56
2022/03/26 09:49:33;;;;;;;34.20;24.23;;;13.60;61.60;;;;;;5052555;28;20488;-56
2022/03/26 09:52:00;;;;;;;34.30;23.93;;;13.70;61.30;;;;;;5054500;28;20446;-57
2022/03/26 09:54:29;;;;;;;35.47;23.07;;;13.70;61.10;;;;;;5054234;28;20435;-56
2022/03/26 09:56:56;;;;;;;33.80;23.93;;;13.80;61.00;;;;;;5053726;28;20453;-56
2022/03/26 09:59:24;;;;;;;31.30;22.20;;;13.90;61.00;;;;;;5052927;28;20936;-57
2022/03/26 10:01:51;;;;;;;32.13;21.03;;;14.00;60.80;;;;;;5053682;28;20447;-55
2022/03/26 10:04:19;;;;;;;28.23;20.73;;;14.10;60.00;;;;;;5053399;28;20474;-56
2022/03/26 10:06:51;;;;;;;27.73;21.17;;;14.20;59.60;;;;;;5046309;28;20462;-57
2022/03/26 10:09:34;;;;;;;30.53;20.30;;;14.20;59.50;;;;;;5048579;28;20482;-55
2022/03/26 10:12:03;;;;;;;26.97;19.30;;;14.30;59.40;;;;;;5041778;28;20427;-58
2022/03/26 10:14:44;;;;;;;27.73;20.70;;;14.40;58.70;;;;;;5038080;28;20443;-56
2022/03/26 10:17:18;;;;;;;29.53;19.90;;;14.40;58.60;;;;;;5038061;28;20435;-55
2022/03/26 10:19:48;;;;;;;28.10;20.50;;;14.50;58.60;;;;;;5037773;28;20474;-57
2022/03/26 10:22:33;;;;;;;30.10;21.10;;;14.60;58.20;;;;;;5038251;28;20432;-56
2022/03/26 10:25:05;;;;;;;29.97;20.80;;;14.70;57.90;;;;;;5037845;28;20443;-56
2022/03/26 10:27:40;;;;;;;30.83;20.30;;;14.70;57.60;;;;;;5037019;28;20497;-55
2022/03/26 10:30:07;;;;;;;26.03;20.50;;;14.80;57.60;;;;;;5037576;28;20486;-56
2022/03/26 10:32:39;;;;;;;29.50;20.20;;;14.80;57.30;;;;;;5039126;28;20463;-56
2022/03/26 10:35:09;;;;;;;26.30;20.10;;;14.80;57.20;;;;;;5037338;28;20452;-57
2022/03/26 10:38:01;;;;;;;28.40;20.10;;;14.80;57.10;;;;;;5037623;28;20446;-57
2022/03/26 10:40:35;;;;;;;29.67;20.70;;;14.80;57.30;;;;;;5037374;28;20463;-56
2022/03/26 10:43:06;;;;;;;26.03;19.77;;;14.90;57.10;;;;;;5037778;28;20522;-57
2022/03/26 10:45:34;;;;;;;26.00;20.93;;;15.00;56.90;;;;;;5035994;28;20436;-56
2022/03/26 10:48:03;;;;;;;25.40;17.73;;;15.20;56.70;;;;;;5036946;28;20555;-57
2022/03/26 10:50:34;;;;;;;23.60;17.27;;;15.30;56.40;;;;;;5036858;28;20499;-56
2022/03/26 10:53:10;;;;;;;22.80;17.47;;;15.30;55.10;;;;;;5037865;28;20809;-57
2022/03/26 10:55:43;;;;;;;27.83;17.30;;;15.30;54.80;;;;;;5035518;28;20431;-57
2022/03/26 10:58:11;;;;;;;23.43;16.90;;;15.30;54.70;;;;;;5035067;28;20453;-56
2022/03/26 11:00:38;;;;;;;24.13;17.00;;;15.40;54.60;;;;;;5034736;28;20846;-57
2022/03/26 11:03:05;;;;;;;23.97;17.60;;;15.50;54.30;;;;;;5035441;28;20523;-57
2022/03/26 11:05:34;;;;;;;25.83;17.50;;;15.60;53.70;;;;;;5035559;28;20459;-57
2022/03/26 11:08:02;;;;;;;21.93;16.07;;;15.60;53.20;;;;;;5035349;28;20541;-56
2022/03/26 11:10:31;;;;;;;20.50;15.90;;;15.70;53.40;;;;;;5034774;28;20516;-57
2022/03/26 11:13:03;;;;;;;23.10;16.50;;;15.70;53.10;;;;;;5017630;28;20447;-57
2022/03/26 11:15:35;;;;;;;23.83;18.70;;;15.70;53.10;;;;;;5035552;28;20482;-55
2022/03/26 11:18:22;;;;;;;22.90;17.43;;;15.80;53.10;;;;;;5035205;28;20443;-56
2022/03/26 11:21:27;;;;;;;22.00;16.70;;;15.90;52.90;;;;;;5036209;28;20475;-56
2022/03/26 11:24:19;;;;;;;19.63;15.37;;;15.90;52.40;;;;;;5024284;28;20452;-55
2022/03/26 11:27:01;;;;;;;23.90;17.33;;;16.00;52.20;;;;;;5051352;28;20437;-56
2022/03/26 11:29:44;;;;;;;25.63;17.93;;;16.10;51.90;;;;;;5049612;28;20422;-55
2022/03/26 11:32:18;;;;;;;22.43;16.60;;;16.10;51.80;;;;;;5051968;28;20436;-56
2022/03/26 11:34:46;;;;;;;21.60;17.27;;;16.10;51.80;;;;;;5046836;28;20430;-56
2022/03/26 11:37:21;;;;;;;27.47;17.43;;;16.20;52.00;;;;;;5044859;28;20522;-56
2022/03/26 11:39:51;;;;;;;22.20;14.17;;;16.20;51.70;;;;;;5038039;28;20467;-56
2022/03/26 11:42:24;;;;;;;18.63;14.90;;;16.30;51.40;;;;;;5034854;28;20456;-55
2022/03/26 11:50:45;;;;;;;15.90;13.50;;;16.60;50.30;;;;;;5033483;28;20564;-56
2022/03/26 11:53:33;;;;;;;24.00;15.83;;;16.70;49.70;;;;;;5033696;28;20430;-56
2022/03/26 11:56:02;;;;;;;17.03;12.93;;;16.90;49.30;;;;;;5033704;28;20436;-58
2022/03/26 11:58:29;;;;;;;17.17;13.40;;;17.00;49.10;;;;;;5033674;28;20920;-57
2022/03/26 12:01:01;;;;;;;16.77;12.53;;;17.00;48.40;;;;;;5033832;28;20976;-56
2022/03/26 12:03:29;;;;;;;16.80;11.90;;;16.90;48.10;;;;;;5033702;28;20931;-55
2022/03/26 12:08:54;;;;;;;19.00;14.87;;;17.00;47.80;;;;;;5034685;28;20505;-55
2022/03/26 12:11:23;;;;;;;18.27;14.23;;;17.00;48.00;;;;;;5034845;28;20492;-56
2022/03/26 12:14:04;;;;;;;19.63;13.30;;;17.10;47.80;;;;;;5034557;28;20453;-56
2022/03/26 12:16:57;;;;;;;19.73;13.90;;;17.20;47.70;;;;;;5034669;28;20552;-56
2022/03/26 12:19:38;;;;;;;21.50;14.97;;;17.50;47.20;;;;;;5034672;28;20457;-56
2022/03/26 12:22:23;;;;;;;16.73;13.30;;;17.60;46.60;;;;;;5034526;28;20436;-56
2022/03/26 12:24:51;;;;;;;17.97;12.70;;;17.60;46.50;;;;;;5035140;28;20449;-57
2022/03/26 12:27:18;;;;;;;20.27;14.27;;;17.70;46.50;;;;;;5034612;28;20454;-57
2022/03/26 12:29:45;;;;;;;18.63;13.77;;;17.70;46.60;;;;;;5035376;28;20548;-56
2022/03/26 12:32:14;;;;;;;19.23;12.77;;;17.70;46.50;;;;;;5037846;28;20453;-57
2022/03/26 12:34:54;;;;;;;16.40;12.37;;;17.70;46.80;;;;;;5038004;28;20458;-56
2022/03/26 12:37:23;;;;;;;16.27;11.83;;;17.70;47.40;;;;;;5037885;28;20453;-57
2022/03/26 12:39:50;;;;;;;13.13;10.90;;;17.70;47.70;;;;;;5036905;28;20473;-57
2022/03/26 12:42:18;;;;;;;19.03;12.90;;;17.70;47.80;;;;;;5036968;28;20447;-57
2022/03/26 12:44:45;;;;;;;22.60;11.97;;;17.70;48.10;;;;;;5037260;28;20457;-56
2022/03/26 12:47:17;;;;;;;16.10;11.70;;;17.70;48.30;;;;;;5037331;28;20534;-57
2022/03/26 12:49:47;;;;;;;18.17;13.00;;;17.60;48.40;;;;;;5038124;28;20481;-57
2022/03/26 12:52:18;;;;;;;19.60;12.77;;;17.60;48.50;;;;;;5038717;28;20824;-56
2022/03/26 12:54:45;;;;;;;16.73;13.27;;;17.50;48.70;;;;;;5038223;28;20491;-56
2022/03/26 12:57:12;;;;;;;15.37;12.10;;;17.50;49.00;;;;;;5037219;28;20455;-57